createdAt,value
2022-09-07T00:05:16.219Z,20.9
2022-09-07T00:15:16.237Z,20.8
2022-09-07T00:25:16.179Z,20.9
2022-09-07T00:35:16.157Z,21
2022-09-07T00:45:16.173Z,21.1
2022-09-07T00:55:16.124Z,21.1
2022-09-07T01:05:16.102Z,21.1
2022-09-07T01:15:16.108Z,21.1
2022-09-07T01:25:16.059Z,21.1
2022-09-07T01:35:16.031Z,20.8
2022-09-07T01:45:16.056Z,20.6
2022-09-07T01:55:15.994Z,20.6
2022-09-07T02:05:15.987Z,20.5
2022-09-07T02:15:15.980Z,20.4
2022-09-07T02:25:15.941Z,20.4
2022-09-07T02:35:15.905Z,20.4
2022-09-07T02:45:15.927Z,20.3
2022-09-07T02:55:15.863Z,20.3
2022-09-07T03:05:15.850Z,20.2
2022-09-07T03:15:15.860Z,20.1
2022-09-07T03:25:15.812Z,20.1
2022-09-07T03:35:15.780Z,20
2022-09-07T03:45:15.783Z,19.7
2022-09-07T03:55:15.776Z,19.4
2022-09-07T04:05:15.715Z,19.1
2022-09-07T04:15:15.698Z,18.9
2022-09-07T04:25:15.718Z,18.6
2022-09-07T04:35:15.658Z,18.5
2022-09-07T04:45:15.639Z,18.4
2022-09-07T04:55:15.647Z,18.2
2022-09-07T05:05:15.600Z,18.2
2022-09-07T05:15:15.577Z,18
2022-09-07T05:25:15.587Z,18.2
2022-09-07T05:35:15.534Z,18.2
2022-09-07T05:45:15.522Z,18.1
2022-09-07T05:55:29.503Z,18.1
2022-09-07T06:05:15.474Z,18.3
2022-09-07T06:15:15.462Z,18.5
2022-09-07T06:25:15.503Z,18.8
2022-09-07T06:35:15.414Z,19.2
2022-09-07T06:45:15.388Z,19.3
2022-09-07T06:55:15.403Z,19.4
2022-09-07T07:05:15.360Z,19.5
2022-09-07T07:15:15.332Z,19.8
2022-09-07T07:25:15.356Z,20.6
2022-09-07T07:35:15.359Z,21
2022-09-07T07:55:43.442Z,21.3
2022-09-07T08:05:15.238Z,21.6
2022-09-07T08:15:15.286Z,21.9
2022-09-07T08:25:15.219Z,22.1
2022-09-07T08:35:15.156Z,22.3
2022-09-07T08:45:15.172Z,22.7
2022-09-07T08:55:15.153Z,23
2022-09-07T09:05:17.784Z,23.3
2022-09-07T09:15:15.115Z,23.6
2022-09-07T09:25:15.095Z,24
2022-09-07T09:35:15.030Z,25.8
2022-09-07T09:45:15.045Z,28.2
2022-09-07T09:55:33.707Z,29.8
2022-09-07T10:05:14.972Z,30.7
2022-09-07T10:15:14.977Z,32.2
2022-09-07T10:25:14.959Z,33.1
2022-09-07T10:35:14.921Z,34.2
2022-09-07T10:45:14.924Z,34.9
2022-09-07T10:55:14.890Z,35.8
2022-09-07T11:05:14.845Z,36.4
2022-09-07T11:15:14.853Z,36.7
2022-09-07T11:25:30.412Z,37.2
2022-09-07T11:35:14.777Z,37.6
2022-09-07T11:45:14.806Z,37.6
2022-09-07T11:55:14.767Z,37.8
2022-09-07T12:05:14.731Z,37.9
2022-09-07T12:15:15.032Z,38.4
2022-09-07T12:25:14.717Z,38.2
2022-09-07T12:35:14.660Z,36.9
2022-09-07T12:45:14.694Z,36.2
2022-09-07T12:55:28.126Z,35.4
2022-09-07T13:05:15.496Z,34
2022-09-07T13:15:22.458Z,33
2022-09-07T13:25:14.554Z,32.4
2022-09-07T13:35:14.569Z,31.7
2022-09-07T13:45:14.539Z,30.7
2022-09-07T13:55:14.492Z,29.9
2022-09-07T14:05:14.470Z,29.7
2022-09-07T14:15:14.477Z,30.1
2022-09-07T14:25:14.420Z,30.4
2022-09-07T14:35:14.441Z,29.9
2022-09-07T14:45:14.405Z,29.2
2022-09-07T14:55:14.356Z,28.3
2022-09-07T15:05:14.344Z,27.5
2022-09-07T15:15:14.341Z,27.3
2022-09-07T15:25:15.082Z,27.2
2022-09-07T15:35:14.772Z,27.3
2022-09-07T15:45:14.287Z,27.1
2022-09-07T15:55:14.432Z,26.8
2022-09-07T16:05:14.379Z,26.4
2022-09-07T16:15:14.262Z,26.1
2022-09-07T16:25:14.158Z,26
2022-09-07T16:35:14.145Z,26.1
2022-09-07T16:55:14.093Z,26.7
2022-09-07T17:05:14.076Z,26.4
2022-09-07T17:15:14.083Z,25.9
2022-09-07T17:25:14.134Z,25.4
2022-09-07T17:35:13.995Z,25
2022-09-07T17:45:14.087Z,24.6
2022-09-07T18:05:13.954Z,24
2022-09-07T18:15:13.924Z,23.6
2022-09-07T18:25:13.931Z,23.4
2022-09-07T18:35:13.915Z,23
2022-09-07T18:45:29.300Z,22.8
2022-09-07T18:55:14.159Z,22.5
2022-09-07T19:15:13.805Z,22.1
2022-09-07T19:25:13.811Z,22
2022-09-07T19:35:13.750Z,21.9
2022-09-07T19:45:13.724Z,22
2022-09-07T19:55:13.739Z,21.9
2022-09-07T20:05:13.691Z,21.9
2022-09-07T20:15:13.676Z,21.9
2022-09-07T20:25:13.688Z,21.9
2022-09-07T20:35:13.621Z,21.8
2022-09-07T20:45:13.620Z,21.7
2022-09-07T20:55:13.633Z,21.7
2022-09-07T21:05:13.573Z,21.8
2022-09-07T21:15:13.539Z,21.7
2022-09-07T21:25:13.550Z,21.9
2022-09-07T21:35:13.492Z,21.9
2022-09-07T21:45:13.487Z,21.9
2022-09-07T21:55:13.507Z,22
2022-09-07T22:05:13.458Z,21.7
2022-09-07T22:15:13.445Z,21.1
2022-09-07T22:25:13.425Z,20
2022-09-07T22:35:13.367Z,19.4
2022-09-07T22:45:13.384Z,18.7
2022-09-07T22:55:13.370Z,18.4
2022-09-07T23:05:13.382Z,18.1
2022-09-07T23:15:13.330Z,17.8
2022-09-07T23:25:13.306Z,17.8
2022-09-07T23:35:16.555Z,17.8
2022-09-07T23:45:13.263Z,18
2022-09-07T23:55:13.244Z,17.9
